sensor_id;sensor_type;location;lat;lon;timestamp;temperature;humidity
75161;DHT22;67232;50.096;8.716;2023-06-14T00:00:58;22.50;46.50
75161;DHT22;67232;50.096;8.716;2023-06-14T00:03:28;22.50;46.50
75161;DHT22;67232;50.096;8.716;2023-06-14T00:05:54;22.40;46.40
75161;DHT22;67232;50.096;8.716;2023-06-14T00:08:20;22.30;46.50
75161;DHT22;67232;50.096;8.716;2023-06-14T00:10:48;22.30;46.60
75161;DHT22;67232;50.096;8.716;2023-06-14T00:13:14;22.30;46.70
75161;DHT22;67232;50.096;8.716;2023-06-14T00:15:40;22.30;45.80
75161;DHT22;67232;50.096;8.716;2023-06-14T00:18:06;22.40;46.50
75161;DHT22;67232;50.096;8.716;2023-06-14T00:20:37;22.30;46.20
75161;DHT22;67232;50.096;8.716;2023-06-14T00:23:03;22.40;46.20
75161;DHT22;67232;50.096;8.716;2023-06-14T00:25:28;22.40;46.00
75161;DHT22;67232;50.096;8.716;2023-06-14T00:27:55;22.40;45.70
75161;DHT22;67232;50.096;8.716;2023-06-14T00:30:21;22.50;45.80
75161;DHT22;67232;50.096;8.716;2023-06-14T00:32:47;22.50;46.00
75161;DHT22;67232;50.096;8.716;2023-06-14T00:35:12;22.60;45.50
75161;DHT22;67232;50.096;8.716;2023-06-14T00:37:38;22.50;45.50
75161;DHT22;67232;50.096;8.716;2023-06-14T00:40:04;22.60;45.50
75161;DHT22;67232;50.096;8.716;2023-06-14T00:42:31;22.50;45.30
75161;DHT22;67232;50.096;8.716;2023-06-14T00:44:59;22.50;45.30
75161;DHT22;67232;50.096;8.716;2023-06-14T00:47:25;22.50;45.20
75161;DHT22;67232;50.096;8.716;2023-06-14T00:49:53;22.40;45.50
75161;DHT22;67232;50.096;8.716;2023-06-14T00:52:23;22.30;45.70
75161;DHT22;67232;50.096;8.716;2023-06-14T00:54:49;22.20;45.50
75161;DHT22;67232;50.096;8.716;2023-06-14T00:57:15;22.20;45.10
75161;DHT22;67232;50.096;8.716;2023-06-14T00:59:45;22.20;45.60
75161;DHT22;67232;50.096;8.716;2023-06-14T01:02:15;22.30;45.40
75161;DHT22;67232;50.096;8.716;2023-06-14T01:04:46;22.30;45.40
75161;DHT22;67232;50.096;8.716;2023-06-14T01:10:21;22.30;45.20
75161;DHT22;67232;50.096;8.716;2023-06-14T01:13:01;22.40;45.20
75161;DHT22;67232;50.096;8.716;2023-06-14T01:15:30;22.30;45.20
75161;DHT22;67232;50.096;8.716;2023-06-14T01:17:56;22.30;45.00
75161;DHT22;67232;50.096;8.716;2023-06-14T01:20:29;22.30;45.20
75161;DHT22;67232;50.096;8.716;2023-06-14T01:22:56;22.20;45.10
75161;DHT22;67232;50.096;8.716;2023-06-14T01:25:22;22.20;45.50
75161;DHT22;67232;50.096;8.716;2023-06-14T01:28:03;22.20;45.50
75161;DHT22;67232;50.096;8.716;2023-06-14T01:30:32;22.20;45.10
75161;DHT22;67232;50.096;8.716;2023-06-14T01:32:59;22.20;45.00
75161;DHT22;67232;50.096;8.716;2023-06-14T01:35:27;22.10;45.40
75161;DHT22;67232;50.096;8.716;2023-06-14T01:37:53;21.90;45.90
75161;DHT22;67232;50.096;8.716;2023-06-14T01:40:19;21.90;45.50
75161;DHT22;67232;50.096;8.716;2023-06-14T01:42:47;22.00;45.50
75161;DHT22;67232;50.096;8.716;2023-06-14T01:45:14;22.00;45.80
75161;DHT22;67232;50.096;8.716;2023-06-14T01:47:40;22.00;45.50
75161;DHT22;67232;50.096;8.716;2023-06-14T01:50:06;21.90;45.30
75161;DHT22;67232;50.096;8.716;2023-06-14T01:52:34;21.90;45.20
75161;DHT22;67232;50.096;8.716;2023-06-14T01:55:00;21.90;45.30
75161;DHT22;67232;50.096;8.716;2023-06-14T01:57:28;21.90;45.00
75161;DHT22;67232;50.096;8.716;2023-06-14T01:59:56;21.90;45.40
75161;DHT22;67232;50.096;8.716;2023-06-14T02:02:21;21.80;45.30
75161;DHT22;67232;50.096;8.716;2023-06-14T02:04:49;21.90;45.20
75161;DHT22;67232;50.096;8.716;2023-06-14T02:07:17;21.90;45.40
75161;DHT22;67232;50.096;8.716;2023-06-14T02:09:43;22.00;45.20
75161;DHT22;67232;50.096;8.716;2023-06-14T02:12:11;21.90;45.20
75161;DHT22;67232;50.096;8.716;2023-06-14T02:14:41;21.80;45.20
75161;DHT22;67232;50.096;8.716;2023-06-14T02:17:07;21.80;45.40
75161;DHT22;67232;50.096;8.716;2023-06-14T02:19:37;21.80;45.60
75161;DHT22;67232;50.096;8.716;2023-06-14T02:22:05;21.80;45.40
75161;DHT22;67232;50.096;8.716;2023-06-14T02:24:33;21.70;46.10
75161;DHT22;67232;50.096;8.716;2023-06-14T02:26:58;21.80;45.80
75161;DHT22;67232;50.096;8.716;2023-06-14T02:29:26;21.80;45.70
75161;DHT22;67232;50.096;8.716;2023-06-14T02:31:54;21.80;45.80
75161;DHT22;67232;50.096;8.716;2023-06-14T02:34:20;21.80;45.40
75161;DHT22;67232;50.096;8.716;2023-06-14T02:36:49;21.80;45.60
75161;DHT22;67232;50.096;8.716;2023-06-14T02:39:15;21.70;46.00
75161;DHT22;67232;50.096;8.716;2023-06-14T02:41:40;21.70;46.00
75161;DHT22;67232;50.096;8.716;2023-06-14T02:44:06;21.80;46.20
75161;DHT22;67232;50.096;8.716;2023-06-14T02:46:32;21.80;46.30
75161;DHT22;67232;50.096;8.716;2023-06-14T02:48:58;21.80;46.00
75161;DHT22;67232;50.096;8.716;2023-06-14T02:51:24;21.80;46.00
75161;DHT22;67232;50.096;8.716;2023-06-14T02:53:49;21.80;46.30
75161;DHT22;67232;50.096;8.716;2023-06-14T02:56:15;21.80;46.10
75161;DHT22;67232;50.096;8.716;2023-06-14T02:58:45;21.70;46.40
75161;DHT22;67232;50.096;8.716;2023-06-14T03:01:13;21.70;46.50
75161;DHT22;67232;50.096;8.716;2023-06-14T03:03:39;21.70;46.80
75161;DHT22;67232;50.096;8.716;2023-06-14T03:06:04;21.70;46.70
75161;DHT22;67232;50.096;8.716;2023-06-14T03:08:32;21.60;46.60
75161;DHT22;67232;50.096;8.716;2023-06-14T03:11:04;21.50;47.10
75161;DHT22;67232;50.096;8.716;2023-06-14T03:13:36;21.20;46.40
75161;DHT22;67232;50.096;8.716;2023-06-14T03:16:04;21.00;46.80
75161;DHT22;67232;50.096;8.716;2023-06-14T03:18:30;21.10;47.00
75161;DHT22;67232;50.096;8.716;2023-06-14T03:21:01;21.10;47.10
75161;DHT22;67232;50.096;8.716;2023-06-14T03:23:27;21.00;47.30
75161;DHT22;67232;50.096;8.716;2023-06-14T03:25:52;21.00;47.00
75161;DHT22;67232;50.096;8.716;2023-06-14T03:28:18;21.10;47.20
75161;DHT22;67232;50.096;8.716;2023-06-14T03:30:43;21.10;46.90
75161;DHT22;67232;50.096;8.716;2023-06-14T03:33:09;21.00;46.90
75161;DHT22;67232;50.096;8.716;2023-06-14T03:35:39;21.00;47.10
75161;DHT22;67232;50.096;8.716;2023-06-14T03:38:05;21.00;47.10
75161;DHT22;67232;50.096;8.716;2023-06-14T03:40:33;20.80;48.40
75161;DHT22;67232;50.096;8.716;2023-06-14T03:43:01;20.80;48.60
75161;DHT22;67232;50.096;8.716;2023-06-14T03:45:31;20.70;48.70
75161;DHT22;67232;50.096;8.716;2023-06-14T03:47:57;20.60;48.90
75161;DHT22;67232;50.096;8.716;2023-06-14T03:50:26;20.70;49.00
75161;DHT22;67232;50.096;8.716;2023-06-14T03:52:52;20.70;49.00
75161;DHT22;67232;50.096;8.716;2023-06-14T03:55:18;20.60;49.20
75161;DHT22;67232;50.096;8.716;2023-06-14T03:57:43;20.60;49.30
75161;DHT22;67232;50.096;8.716;2023-06-14T04:00:10;20.60;49.20
75161;DHT22;67232;50.096;8.716;2023-06-14T04:02:36;20.70;49.20
75161;DHT22;67232;50.096;8.716;2023-06-14T04:05:02;20.60;49.40
75161;DHT22;67232;50.096;8.716;2023-06-14T04:07:30;20.70;49.20
75161;DHT22;67232;50.096;8.716;2023-06-14T04:09:56;20.80;49.30
75161;DHT22;67232;50.096;8.716;2023-06-14T04:12:21;20.80;49.20
75161;DHT22;67232;50.096;8.716;2023-06-14T04:14:49;20.80;49.60
75161;DHT22;67232;50.096;8.716;2023-06-14T04:17:15;20.70;49.90
75161;DHT22;67232;50.096;8.716;2023-06-14T04:19:45;20.60;50.00
75161;DHT22;67232;50.096;8.716;2023-06-14T04:22:11;20.70;50.10
75161;DHT22;67232;50.096;8.716;2023-06-14T04:24:39;20.80;50.40
75161;DHT22;67232;50.096;8.716;2023-06-14T04:27:07;20.70;50.70
75161;DHT22;67232;50.096;8.716;2023-06-14T04:29:33;20.70;50.60
75161;DHT22;67232;50.096;8.716;2023-06-14T04:31:58;20.70;50.20
75161;DHT22;67232;50.096;8.716;2023-06-14T04:34:32;20.80;49.50
75161;DHT22;67232;50.096;8.716;2023-06-14T04:36:59;20.90;49.30
75161;DHT22;67232;50.096;8.716;2023-06-14T04:39:27;20.80;49.70
75161;DHT22;67232;50.096;8.716;2023-06-14T04:41:53;20.80;50.10
75161;DHT22;67232;50.096;8.716;2023-06-14T04:44:24;20.80;49.80
75161;DHT22;67232;50.096;8.716;2023-06-14T04:46:59;20.70;50.00
75161;DHT22;67232;50.096;8.716;2023-06-14T04:49:25;20.70;50.00
75161;DHT22;67232;50.096;8.716;2023-06-14T04:51:52;20.80;50.00
75161;DHT22;67232;50.096;8.716;2023-06-14T04:54:23;20.90;49.70
75161;DHT22;67232;50.096;8.716;2023-06-14T04:56:52;20.80;49.60
75161;DHT22;67232;50.096;8.716;2023-06-14T04:59:23;20.80;49.70
75161;DHT22;67232;50.096;8.716;2023-06-14T05:01:51;20.80;49.40
75161;DHT22;67232;50.096;8.716;2023-06-14T05:04:20;20.70;50.00
75161;DHT22;67232;50.096;8.716;2023-06-14T05:06:47;20.80;49.30
75161;DHT22;67232;50.096;8.716;2023-06-14T05:09:16;20.70;50.00
75161;DHT22;67232;50.096;8.716;2023-06-14T05:11:42;20.60;50.50
75161;DHT22;67232;50.096;8.716;2023-06-14T05:14:10;20.60;50.70
75161;DHT22;67232;50.096;8.716;2023-06-14T05:16:36;20.80;50.40
75161;DHT22;67232;50.096;8.716;2023-06-14T05:19:04;20.80;50.00
75161;DHT22;67232;50.096;8.716;2023-06-14T05:21:32;20.80;50.10
75161;DHT22;67232;50.096;8.716;2023-06-14T05:24:04;20.80;50.80
75161;DHT22;67232;50.096;8.716;2023-06-14T05:26:30;20.90;49.60
75161;DHT22;67232;50.096;8.716;2023-06-14T05:28:58;20.80;50.50
75161;DHT22;67232;50.096;8.716;2023-06-14T05:31:29;20.90;50.00
75161;DHT22;67232;50.096;8.716;2023-06-14T05:33:54;21.00;50.50
75161;DHT22;67232;50.096;8.716;2023-06-14T05:36:21;21.00;50.10
75161;DHT22;67232;50.096;8.716;2023-06-14T05:38:49;21.00;50.00
75161;DHT22;67232;50.096;8.716;2023-06-14T05:41:16;21.20;49.80
75161;DHT22;67232;50.096;8.716;2023-06-14T05:43:44;21.20;49.90
75161;DHT22;67232;50.096;8.716;2023-06-14T05:46:12;21.20;50.10
75161;DHT22;67232;50.096;8.716;2023-06-14T05:48:39;21.10;50.10
75161;DHT22;67232;50.096;8.716;2023-06-14T05:51:07;21.10;50.20
75161;DHT22;67232;50.096;8.716;2023-06-14T05:53:34;21.20;50.00
75161;DHT22;67232;50.096;8.716;2023-06-14T05:55:59;21.30;50.10
75161;DHT22;67232;50.096;8.716;2023-06-14T05:58:25;21.40;49.90
75161;DHT22;67232;50.096;8.716;2023-06-14T06:00:51;21.40;49.80
75161;DHT22;67232;50.096;8.716;2023-06-14T06:03:18;21.50;49.80
75161;DHT22;67232;50.096;8.716;2023-06-14T06:05:46;21.40;50.30
75161;DHT22;67232;50.096;8.716;2023-06-14T06:08:14;21.60;50.30
75161;DHT22;67232;50.096;8.716;2023-06-14T06:10:42;21.60;50.30
75161;DHT22;67232;50.096;8.716;2023-06-14T06:13:10;21.60;50.00
75161;DHT22;67232;50.096;8.716;2023-06-14T06:15:35;21.70;49.90
75161;DHT22;67232;50.096;8.716;2023-06-14T06:18:01;21.70;49.70
75161;DHT22;67232;50.096;8.716;2023-06-14T06:20:26;21.60;49.80
75161;DHT22;67232;50.096;8.716;2023-06-14T06:22:54;21.60;49.70
75161;DHT22;67232;50.096;8.716;2023-06-14T06:25:21;21.60;50.00
75161;DHT22;67232;50.096;8.716;2023-06-14T06:27:47;21.70;50.00
75161;DHT22;67232;50.096;8.716;2023-06-14T06:30:13;21.80;50.30
75161;DHT22;67232;50.096;8.716;2023-06-14T06:32:45;21.90;50.60
75161;DHT22;67232;50.096;8.716;2023-06-14T06:35:11;22.10;50.20
75161;DHT22;67232;50.096;8.716;2023-06-14T06:37:39;22.10;50.20
75161;DHT22;67232;50.096;8.716;2023-06-14T06:40:05;22.20;49.80
75161;DHT22;67232;50.096;8.716;2023-06-14T06:42:34;22.20;49.40
75161;DHT22;67232;50.096;8.716;2023-06-14T06:45:00;22.20;49.20
75161;DHT22;67232;50.096;8.716;2023-06-14T06:47:26;22.20;49.90
75161;DHT22;67232;50.096;8.716;2023-06-14T06:49:51;22.30;49.50
75161;DHT22;67232;50.096;8.716;2023-06-14T06:52:17;22.30;49.30
75161;DHT22;67232;50.096;8.716;2023-06-14T06:54:42;22.40;49.80
75161;DHT22;67232;50.096;8.716;2023-06-14T06:57:08;22.50;49.10
75161;DHT22;67232;50.096;8.716;2023-06-14T06:59:34;22.40;49.40
75161;DHT22;67232;50.096;8.716;2023-06-14T07:01:59;22.60;49.70
75161;DHT22;67232;50.096;8.716;2023-06-14T07:04:29;22.40;48.80
75161;DHT22;67232;50.096;8.716;2023-06-14T07:06:56;22.50;48.20
75161;DHT22;67232;50.096;8.716;2023-06-14T07:09:24;22.70;48.30
75161;DHT22;67232;50.096;8.716;2023-06-14T07:11:52;22.70;47.70
75161;DHT22;67232;50.096;8.716;2023-06-14T07:14:22;22.70;47.60
75161;DHT22;67232;50.096;8.716;2023-06-14T07:16:53;22.70;47.30
75161;DHT22;67232;50.096;8.716;2023-06-14T07:19:21;22.80;47.60
75161;DHT22;67232;50.096;8.716;2023-06-14T07:21:49;22.80;47.80
75161;DHT22;67232;50.096;8.716;2023-06-14T07:24:15;22.90;47.60
75161;DHT22;67232;50.096;8.716;2023-06-14T07:26:43;23.00;47.80
75161;DHT22;67232;50.096;8.716;2023-06-14T07:29:09;23.10;47.70
75161;DHT22;67232;50.096;8.716;2023-06-14T07:31:37;23.00;47.50
75161;DHT22;67232;50.096;8.716;2023-06-14T07:34:05;23.10;47.10
75161;DHT22;67232;50.096;8.716;2023-06-14T07:36:33;23.10;47.20
75161;DHT22;67232;50.096;8.716;2023-06-14T07:38:58;23.10;47.40
75161;DHT22;67232;50.096;8.716;2023-06-14T07:41:24;23.10;47.50
75161;DHT22;67232;50.096;8.716;2023-06-14T07:43:51;23.20;47.40
75161;DHT22;67232;50.096;8.716;2023-06-14T07:46:16;23.20;47.40
75161;DHT22;67232;50.096;8.716;2023-06-14T07:48:44;23.30;47.20
75161;DHT22;67232;50.096;8.716;2023-06-14T07:51:15;23.30;47.20
75161;DHT22;67232;50.096;8.716;2023-06-14T07:53:40;23.40;46.70
75161;DHT22;67232;50.096;8.716;2023-06-14T07:56:09;23.40;46.80
75161;DHT22;67232;50.096;8.716;2023-06-14T07:58:35;23.40;46.30
75161;DHT22;67232;50.096;8.716;2023-06-14T08:01:03;23.60;46.70
75161;DHT22;67232;50.096;8.716;2023-06-14T08:03:32;23.60;45.30
75161;DHT22;67232;50.096;8.716;2023-06-14T08:05:57;23.70;45.80
75161;DHT22;67232;50.096;8.716;2023-06-14T08:08:23;23.70;45.50
75161;DHT22;67232;50.096;8.716;2023-06-14T08:10:51;23.80;45.70
75161;DHT22;67232;50.096;8.716;2023-06-14T08:13:19;23.80;46.30
75161;DHT22;67232;50.096;8.716;2023-06-14T08:15:47;23.90;46.20
75161;DHT22;67232;50.096;8.716;2023-06-14T08:18:14;24.00;45.90
75161;DHT22;67232;50.096;8.716;2023-06-14T08:20:43;23.90;45.40
75161;DHT22;67232;50.096;8.716;2023-06-14T08:23:11;23.90;45.50
75161;DHT22;67232;50.096;8.716;2023-06-14T08:25:36;23.90;45.90
75161;DHT22;67232;50.096;8.716;2023-06-14T08:28:02;24.10;45.40
75161;DHT22;67232;50.096;8.716;2023-06-14T08:30:28;24.20;45.00
75161;DHT22;67232;50.096;8.716;2023-06-14T08:32:53;24.20;45.30
75161;DHT22;67232;50.096;8.716;2023-06-14T08:35:21;24.20;45.50
75161;DHT22;67232;50.096;8.716;2023-06-14T08:37:49;24.20;45.90
75161;DHT22;67232;50.096;8.716;2023-06-14T08:40:19;24.20;45.30
75161;DHT22;67232;50.096;8.716;2023-06-14T08:42:53;24.20;45.30
75161;DHT22;67232;50.096;8.716;2023-06-14T08:45:23;24.50;45.50
75161;DHT22;67232;50.096;8.716;2023-06-14T08:47:51;24.60;45.70
75161;DHT22;67232;50.096;8.716;2023-06-14T08:50:21;24.50;44.50
75161;DHT22;67232;50.096;8.716;2023-06-14T08:52:51;24.50;44.50
75161;DHT22;67232;50.096;8.716;2023-06-14T08:55:18;24.50;43.80
75161;DHT22;67232;50.096;8.716;2023-06-14T08:57:48;24.70;44.00
75161;DHT22;67232;50.096;8.716;2023-06-14T09:00:14;24.80;43.70
75161;DHT22;67232;50.096;8.716;2023-06-14T09:02:40;24.70;43.60
75161;DHT22;67232;50.096;8.716;2023-06-14T09:05:10;24.80;43.90
75161;DHT22;67232;50.096;8.716;2023-06-14T09:07:37;24.80;42.50
75161;DHT22;67232;50.096;8.716;2023-06-14T09:10:10;25.00;42.30
75161;DHT22;67232;50.096;8.716;2023-06-14T09:12:36;24.90;42.30
75161;DHT22;67232;50.096;8.716;2023-06-14T09:15:05;25.00;43.20
75161;DHT22;67232;50.096;8.716;2023-06-14T09:17:34;25.10;42.50
75161;DHT22;67232;50.096;8.716;2023-06-14T09:20:01;25.10;42.30
75161;DHT22;67232;50.096;8.716;2023-06-14T09:22:32;25.00;42.40
75161;DHT22;67232;50.096;8.716;2023-06-14T09:25:00;25.10;43.40
75161;DHT22;67232;50.096;8.716;2023-06-14T09:27:29;25.20;42.80
75161;DHT22;67232;50.096;8.716;2023-06-14T09:29:55;25.40;42.80
75161;DHT22;67232;50.096;8.716;2023-06-14T09:32:21;25.40;41.70
75161;DHT22;67232;50.096;8.716;2023-06-14T09:34:47;25.40;42.20
75161;DHT22;67232;50.096;8.716;2023-06-14T09:37:29;25.40;41.40
75161;DHT22;67232;50.096;8.716;2023-06-14T09:39:55;25.40;41.50
75161;DHT22;67232;50.096;8.716;2023-06-14T09:42:20;25.40;41.40
75161;DHT22;67232;50.096;8.716;2023-06-14T09:44:54;25.40;41.50
75161;DHT22;67232;50.096;8.716;2023-06-14T09:47:21;25.50;42.10
75161;DHT22;67232;50.096;8.716;2023-06-14T09:49:51;25.60;42.00
75161;DHT22;67232;50.096;8.716;2023-06-14T09:52:18;25.70;42.30
75161;DHT22;67232;50.096;8.716;2023-06-14T09:54:47;25.70;41.40
75161;DHT22;67232;50.096;8.716;2023-06-14T09:57:14;25.90;41.80
75161;DHT22;67232;50.096;8.716;2023-06-14T09:59:45;25.90;41.80
75161;DHT22;67232;50.096;8.716;2023-06-14T10:02:29;25.90;41.10
75161;DHT22;67232;50.096;8.716;2023-06-14T10:05:02;26.00;41.50
75161;DHT22;67232;50.096;8.716;2023-06-14T10:07:33;26.00;42.30
75161;DHT22;67232;50.096;8.716;2023-06-14T10:10:01;26.20;41.00
75161;DHT22;67232;50.096;8.716;2023-06-14T10:12:28;26.10;40.70
75161;DHT22;67232;50.096;8.716;2023-06-14T10:14:57;26.10;41.20
75161;DHT22;67232;50.096;8.716;2023-06-14T10:17:46;26.10;41.70
75161;DHT22;67232;50.096;8.716;2023-06-14T10:23:17;26.00;41.40
75161;DHT22;67232;50.096;8.716;2023-06-14T10:25:42;26.00;41.20
75161;DHT22;67232;50.096;8.716;2023-06-14T10:28:17;26.20;41.90
75161;DHT22;67232;50.096;8.716;2023-06-14T10:31:07;26.20;41.00
75161;DHT22;67232;50.096;8.716;2023-06-14T10:33:41;26.10;41.10
75161;DHT22;67232;50.096;8.716;2023-06-14T10:36:30;26.30;41.30
75161;DHT22;67232;50.096;8.716;2023-06-14T10:39:05;26.50;40.40
75161;DHT22;67232;50.096;8.716;2023-06-14T10:41:35;26.50;39.80
75161;DHT22;67232;50.096;8.716;2023-06-14T10:46:39;26.10;41.20
75161;DHT22;67232;50.096;8.716;2023-06-14T10:49:06;26.30;40.70
75161;DHT22;67232;50.096;8.716;2023-06-14T10:51:45;26.50;40.30
75161;DHT22;67232;50.096;8.716;2023-06-14T10:54:13;26.50;39.50
75161;DHT22;67232;50.096;8.716;2023-06-14T10:56:48;26.90;39.90
75161;DHT22;67232;50.096;8.716;2023-06-14T10:59:16;27.10;39.40
75161;DHT22;67232;50.096;8.716;2023-06-14T11:02:20;27.00;39.20
75161;DHT22;67232;50.096;8.716;2023-06-14T11:04:53;27.10;39.60
75161;DHT22;67232;50.096;8.716;2023-06-14T11:12:54;26.60;38.90
75161;DHT22;67232;50.096;8.716;2023-06-14T11:15:20;26.70;39.70
75161;DHT22;67232;50.096;8.716;2023-06-14T11:17:52;26.60;39.30
75161;DHT22;67232;50.096;8.716;2023-06-14T11:20:23;26.50;39.40
75161;DHT22;67232;50.096;8.716;2023-06-14T11:22:49;26.60;39.50
75161;DHT22;67232;50.096;8.716;2023-06-14T11:25:18;26.60;39.20
75161;DHT22;67232;50.096;8.716;2023-06-14T11:27:44;26.60;39.10
75161;DHT22;67232;50.096;8.716;2023-06-14T11:30:10;26.80;38.80
75161;DHT22;67232;50.096;8.716;2023-06-14T11:32:38;26.90;38.80
75161;DHT22;67232;50.096;8.716;2023-06-14T11:35:07;27.00;38.50
75161;DHT22;67232;50.096;8.716;2023-06-14T11:37:33;27.00;38.90
75161;DHT22;67232;50.096;8.716;2023-06-14T11:40:02;26.90;38.00
75161;DHT22;67232;50.096;8.716;2023-06-14T11:42:34;26.80;38.80
75161;DHT22;67232;50.096;8.716;2023-06-14T11:45:00;26.60;38.30
75161;DHT22;67232;50.096;8.716;2023-06-14T11:47:36;26.50;38.80
75161;DHT22;67232;50.096;8.716;2023-06-14T11:50:03;26.40;39.00
75161;DHT22;67232;50.096;8.716;2023-06-14T11:52:31;26.40;39.20
75161;DHT22;67232;50.096;8.716;2023-06-14T11:54:57;26.40;38.90
75161;DHT22;67232;50.096;8.716;2023-06-14T11:57:24;26.60;39.00
75161;DHT22;67232;50.096;8.716;2023-06-14T11:59:50;27.10;39.10
75161;DHT22;67232;50.096;8.716;2023-06-14T12:02:19;27.40;38.80
75161;DHT22;67232;50.096;8.716;2023-06-14T12:04:47;27.50;37.80
75161;DHT22;67232;50.096;8.716;2023-06-14T12:07:16;27.50;37.80
75161;DHT22;67232;50.096;8.716;2023-06-14T12:12:23;27.60;37.60
75161;DHT22;67232;50.096;8.716;2023-06-14T12:14:53;27.70;37.80
75161;DHT22;67232;50.096;8.716;2023-06-14T12:17:21;27.70;38.00
75161;DHT22;67232;50.096;8.716;2023-06-14T12:19:48;27.70;37.60
75161;DHT22;67232;50.096;8.716;2023-06-14T12:22:17;27.70;37.80
75161;DHT22;67232;50.096;8.716;2023-06-14T12:24:43;27.70;37.20
75161;DHT22;67232;50.096;8.716;2023-06-14T12:27:09;27.60;37.40
75161;DHT22;67232;50.096;8.716;2023-06-14T12:29:37;27.50;38.00
75161;DHT22;67232;50.096;8.716;2023-06-14T12:32:03;27.50;38.20
75161;DHT22;67232;50.096;8.716;2023-06-14T12:34:28;27.40;37.70
75161;DHT22;67232;50.096;8.716;2023-06-14T12:36:56;27.30;37.90
75161;DHT22;67232;50.096;8.716;2023-06-14T12:39:22;27.10;37.60
75161;DHT22;67232;50.096;8.716;2023-06-14T12:41:48;27.20;37.70
75161;DHT22;67232;50.096;8.716;2023-06-14T12:44:14;27.20;37.70
75161;DHT22;67232;50.096;8.716;2023-06-14T12:46:43;27.10;37.80
75161;DHT22;67232;50.096;8.716;2023-06-14T12:49:10;27.20;37.40
75161;DHT22;67232;50.096;8.716;2023-06-14T12:51:37;27.20;37.30
75161;DHT22;67232;50.096;8.716;2023-06-14T12:54:05;27.00;37.40
75161;DHT22;67232;50.096;8.716;2023-06-14T12:56:31;27.10;36.90
75161;DHT22;67232;50.096;8.716;2023-06-14T12:58:59;27.00;37.20
75161;DHT22;67232;50.096;8.716;2023-06-14T13:01:24;27.10;37.20
75161;DHT22;67232;50.096;8.716;2023-06-14T13:03:50;27.00;37.50
75161;DHT22;67232;50.096;8.716;2023-06-14T13:06:20;27.00;37.80
75161;DHT22;67232;50.096;8.716;2023-06-14T13:08:46;26.90;37.90
75161;DHT22;67232;50.096;8.716;2023-06-14T13:11:14;26.80;38.50
75161;DHT22;67232;50.096;8.716;2023-06-14T13:13:40;26.90;38.10
75161;DHT22;67232;50.096;8.716;2023-06-14T13:16:06;27.00;37.60
75161;DHT22;67232;50.096;8.716;2023-06-14T13:18:31;27.00;37.50
75161;DHT22;67232;50.096;8.716;2023-06-14T13:20:57;27.00;37.70
75161;DHT22;67232;50.096;8.716;2023-06-14T13:23:22;27.00;37.50
75161;DHT22;67232;50.096;8.716;2023-06-14T13:25:48;27.10;37.60
75161;DHT22;67232;50.096;8.716;2023-06-14T13:28:16;27.20;36.90
75161;DHT22;67232;50.096;8.716;2023-06-14T13:30:41;27.10;37.90
75161;DHT22;67232;50.096;8.716;2023-06-14T13:33:10;27.10;37.50
75161;DHT22;67232;50.096;8.716;2023-06-14T13:35:35;27.20;37.80
75161;DHT22;67232;50.096;8.716;2023-06-14T13:38:01;26.90;37.00
75161;DHT22;67232;50.096;8.716;2023-06-14T13:40:26;26.70;37.10
75161;DHT22;67232;50.096;8.716;2023-06-14T13:42:55;26.70;37.40
75161;DHT22;67232;50.096;8.716;2023-06-14T13:45:20;26.90;36.90
75161;DHT22;67232;50.096;8.716;2023-06-14T13:47:48;27.00;37.30
75161;DHT22;67232;50.096;8.716;2023-06-14T13:50:14;27.20;37.90
75161;DHT22;67232;50.096;8.716;2023-06-14T13:52:39;27.30;37.60
75161;DHT22;67232;50.096;8.716;2023-06-14T13:55:05;27.20;37.40
75161;DHT22;67232;50.096;8.716;2023-06-14T13:57:35;27.20;37.50
75161;DHT22;67232;50.096;8.716;2023-06-14T14:00:03;27.00;37.30
75161;DHT22;67232;50.096;8.716;2023-06-14T14:02:29;26.90;37.60
75161;DHT22;67232;50.096;8.716;2023-06-14T14:04:55;26.80;37.70
75161;DHT22;67232;50.096;8.716;2023-06-14T14:07:24;26.80;37.90
75161;DHT22;67232;50.096;8.716;2023-06-14T14:09:50;26.70;37.80
75161;DHT22;67232;50.096;8.716;2023-06-14T14:12:18;26.70;38.20
75161;DHT22;67232;50.096;8.716;2023-06-14T14:14:44;26.70;38.00
75161;DHT22;67232;50.096;8.716;2023-06-14T14:17:12;26.80;38.00
75161;DHT22;67232;50.096;8.716;2023-06-14T14:19:38;26.90;37.80
75161;DHT22;67232;50.096;8.716;2023-06-14T14:22:04;26.80;38.50
75161;DHT22;67232;50.096;8.716;2023-06-14T14:24:32;26.90;38.30
75161;DHT22;67232;50.096;8.716;2023-06-14T14:26:57;26.60;38.10
75161;DHT22;67232;50.096;8.716;2023-06-14T14:29:25;26.60;38.70
75161;DHT22;67232;50.096;8.716;2023-06-14T14:31:56;26.50;38.20
75161;DHT22;67232;50.096;8.716;2023-06-14T14:34:24;26.40;38.40
75161;DHT22;67232;50.096;8.716;2023-06-14T14:36:52;26.50;38.00
75161;DHT22;67232;50.096;8.716;2023-06-14T14:39:17;26.50;38.10
75161;DHT22;67232;50.096;8.716;2023-06-14T14:41:45;26.40;38.20
75161;DHT22;67232;50.096;8.716;2023-06-14T14:44:10;26.40;38.30
75161;DHT22;67232;50.096;8.716;2023-06-14T14:46:36;26.50;38.30
75161;DHT22;67232;50.096;8.716;2023-06-14T14:49:02;26.60;38.20
75161;DHT22;67232;50.096;8.716;2023-06-14T14:51:28;26.70;37.60
75161;DHT22;67232;50.096;8.716;2023-06-14T14:53:56;26.70;37.50
75161;DHT22;67232;50.096;8.716;2023-06-14T14:56:23;26.80;37.80
75161;DHT22;67232;50.096;8.716;2023-06-14T14:58:49;26.80;38.20
75161;DHT22;67232;50.096;8.716;2023-06-14T15:01:19;26.80;38.50
75161;DHT22;67232;50.096;8.716;2023-06-14T15:03:47;26.90;38.20
75161;DHT22;67232;50.096;8.716;2023-06-14T15:06:13;26.70;38.50
75161;DHT22;67232;50.096;8.716;2023-06-14T15:08:38;26.70;38.10
75161;DHT22;67232;50.096;8.716;2023-06-14T15:11:04;26.70;37.40
75161;DHT22;67232;50.096;8.716;2023-06-14T15:13:29;26.60;37.00
75161;DHT22;67232;50.096;8.716;2023-06-14T15:15:55;26.50;37.00
75161;DHT22;67232;50.096;8.716;2023-06-14T15:18:23;26.30;37.10
75161;DHT22;67232;50.096;8.716;2023-06-14T15:20:48;26.30;37.90
75161;DHT22;67232;50.096;8.716;2023-06-14T15:23:15;26.30;37.60
75161;DHT22;67232;50.096;8.716;2023-06-14T15:25:45;26.30;37.80
75161;DHT22;67232;50.096;8.716;2023-06-14T15:28:12;26.40;37.50
75161;DHT22;67232;50.096;8.716;2023-06-14T15:30:38;26.40;37.80
75161;DHT22;67232;50.096;8.716;2023-06-14T15:33:03;26.40;37.90
75161;DHT22;67232;50.096;8.716;2023-06-14T15:35:29;26.40;37.60
75161;DHT22;67232;50.096;8.716;2023-06-14T15:37:54;26.40;37.50
75161;DHT22;67232;50.096;8.716;2023-06-14T15:40:20;26.30;39.40
75161;DHT22;67232;50.096;8.716;2023-06-14T15:42:48;26.20;39.60
75161;DHT22;67232;50.096;8.716;2023-06-14T15:45:13;26.40;38.80
75161;DHT22;67232;50.096;8.716;2023-06-14T15:47:41;26.40;39.20
75161;DHT22;67232;50.096;8.716;2023-06-14T15:50:07;26.50;38.90